Flight Track Log - Related Links

Times and Time Zones

All times are in EDT time to prevent confusion due to time zone crossing. See the SWA1521 flight status page for this flight to view local times or setup timezone preferences in your user account.

Time Position Orientation Groundspeed Altitude Reporting Facility
EDT Latitude Longitude Course Direction KTS MPH feet Rate Location/Type
Fri 11:50:23 PM 38.6181 -121.5194 109° East 240 276 4,500  Level Oakland Center
Fri 11:51:24 PM 38.5756 -121.4253 120° Southeast 278 320 9,600 4,131 Climbing Oakland Center
Fri 11:52:25 PM 38.5325 -121.3311 120° Southeast 309 356 12,900 3,443 Climbing Oakland Center
Fri 11:53:26 PM 38.4831 -121.2231 120° Southeast 350 403 16,600 3,541 Climbing Oakland Center
Fri 11:54:27 PM 38.4286 -121.1047 120° Southeast 371 427 20,100 3,148 Climbing Oakland Center
Fri 11:55:00 PM 38.3072 -120.9824 109° East  Level FlightAware Approximate
Fri 11:55:28 PM 38.3736 -120.9850 120° Southeast 389 448 23,000  Level Oakland Center
Fri 11:56:29 PM 38.3153 -120.8594 121° Southeast 412 474 25,500 2,459 Climbing Oakland Center
Fri 11:57:30 PM 38.2531 -120.7275 121° Southeast 431 496 28,000 2,361 Climbing Oakland Center
Fri 11:58:31 PM 38.1658 -120.6161 135° Southeast 453 521 30,300 2,459 Climbing Oakland Center
Fri 11:59:32 PM 38.0667 -120.5181 142° Southeast 452 520 33,000 2,262 Climbing Oakland Center
Sat 12:00:33 AM 37.9692 -120.4222 142° Southeast 444 511 34,900 1,884 Climbing Oakland Center
Sat 12:01:33 AM 37.8694 -120.3272 143° Southeast 448 516 36,800 1,041 Climbing Oakland Center
Sat 12:02:34 AM 37.7706 -120.2306 142° Southeast 450 518 37,000 98 Climbing Oakland Center
Sat 12:03:35 AM 37.6714 -120.1361 143° Southeast 445 512 37,000  Level Oakland Center
Sat 12:04:36 AM 37.5689 -120.0450 145° Southeast 452 520 37,000  Level Oakland Center
Sat 12:05:37 AM 37.4714 -119.9472 141° Southeast 446 513 37,000  Level Oakland Center
Sat 12:06:38 AM 37.3531 -119.8358 143° Southeast 443 510 37,000  Level Oakland Center
Sat 12:07:39 AM 37.2667 -119.7514 142° Southeast 443 510 37,000  Level Oakland Center
Sat 12:08:40 AM 37.1689 -119.6572 142° Southeast 443 510 37,000  Level Oakland Center
Sat 12:09:41 AM 37.0572 -119.5967 157° South 447 514 37,000  Level Oakland Center
Sat 12:10:42 AM 36.9325 -119.5986 181° South 448 516 37,000  Level Oakland Center
Sat 12:11:43 AM 36.8064 -119.5975 180° South 456 525 37,000  Level Oakland Center
Sat 12:12:44 AM 36.6794 -119.6011 181° South 455 524 37,000  Level Oakland Center
Sat 12:13:45 AM 36.5325 -119.6050 181° South 442 509 37,000 -197 Level Oakland Center
Sat 12:14:46 AM 36.4075 -119.6053 180° South 446 513 36,600 -694 Descending Oakland Center
Sat 12:15:46 AM 36.2839 -119.6067 181° South 444 511 35,600 -992 Descending Oakland Center
Sat 12:16:47 AM 36.1583 -119.6097 181° South 449 517 34,600 -934 Descending Oakland Center
Sat 12:17:48 AM 36.0331 -119.6111 181° South 449 517 33,700 -787 Descending Oakland Center
Sat 12:18:49 AM 35.9100 -119.6189 183° South 441 507 33,000 -344 Descending Oakland Center
Sat 12:19:50 AM 35.7872 -119.6225 181° South 440 506 33,000  Level Oakland Center
Sat 12:20:51 AM 35.6644 -119.6261 181° South 438 504 33,000  Level Oakland Center
Sat 12:21:52 AM 35.5483 -119.5986 169° South 420 483 33,000  Level Oakland Center
Sat 12:22:53 AM 35.4369 -119.5392 156° South 428 493 33,000  Level Oakland Center
Sat 12:23:54 AM 35.3250 -119.4806 157° South 432 497 33,000  Level Oakland Center
Sat 12:24:55 AM 35.2128 -119.4217 157° South 434 499 33,000 -492 Level Oakland Center
Sat 12:25:56 AM 35.1008 -119.3644 157° South 435 501 32,000 -1,672 Descending Oakland Center
Sat 12:26:57 AM 34.9894 -119.3072 157° South 433 498 29,600 -2,262 Descending Oakland Center
Sat 12:27:58 AM 34.8839 -119.2506 156° South 420 483 27,400 -2,115 Descending Oakland Center
Sat 12:28:59 AM 34.7794 -119.1972 157° South 411 473 25,300 -2,281 Descending Oakland Center
Sat 12:29:59 AM 34.6592 -119.1347 157° South 397 457 22,800 -2,104 Descending Oakland Center
Sat 12:31:13 AM 34.5575 -119.0472 145° Southeast 373 429 20,600 -1,822 Descending Los Angeles Center
Sat 12:32:14 AM 34.4753 -118.9803 146° Southeast 356 410 18,700 -1,805 Descending Los Angeles Center
Sat 12:33:16 AM 34.3958 -118.9139 145° Southeast 348 400 16,900 -1,854 Descending Los Angeles Center
Sat 12:34:17 AM 34.3092 -118.8628 154° Southeast 348 400 14,900 -1,902 Descending Los Angeles Center
Sat 12:35:19 AM 34.2194 -118.8308 164° South 336 387 13,000 -1,415 Descending Los Angeles Center
Sat 12:36:20 AM 34.1319 -118.7994 163° South 329 379 12,000 -1,131 Descending Los Angeles Center
Sat 12:37:21 AM 34.0433 -118.7486 155° Southeast 317 365 10,700 -984 Descending Los Angeles Center
Sat 12:38:22 AM 34.0306 -118.6728 101° East 281 323 10,000 -1,415 Descending Los Angeles Center
Sat 12:39:24 AM 34.0197 -118.5561 96° East 286 329 7,800 -1,463 Descending Los Angeles Center
Sat 12:40:25 AM 34.0106 -118.4636 97° East 278 320 7,000 -829 Descending Los Angeles Center
Sat 12:41:27 AM 34.0178 -118.3828 84° East 257 296 6,100 -878 Descending Los Angeles Center
Sat 12:42:28 AM 34.0261 -118.2983 83° East 254 292 5,200 -738 Descending Los Angeles Center
Sat 12:43:29 AM 34.0181 -118.2317 98° East 224 258 4,600 -878 Descending Los Angeles Center
Sat 12:44:31 AM 33.9681 -118.2522 199° South 199 229 3,400 -1,268 Descending Los Angeles Center
Sat 12:45:32 AM 33.9614 -118.3078 262° West 177 204 2,000 -1,230 Descending Los Angeles Center
Sat 12:46:33 AM 33.9575 -118.3586 265° West 165 190 900 -878 Descending Los Angeles Center
Sat 12:47:35 AM 33.9522 -118.4008 261° West 144 166 200 -677 Descending Los Angeles Center
Sat 12:49:00 AM 33.9425 -118.4081 228° Southwest  Level Estimated

Login

Don't have an account? Register now (free) for customized features, flight alerts, and more!